Martinsburg, Pennsylvania
Current Conditions -  °F | °C
As of 7:53 PM on Tuesday 25 Nov 2014 (Local Time) from KAOO Reporting Station
Clear Clear  
Wind Chill: 34°   Ceiling: Unl
Heat Index: 38°   Visibility: 10mi
Dew Point: 28°   Wind: 5mph
Humidity: 68%   Direction: 280°W
Pressure: 30.1"   Gusts: NA
Location:  40.31°N, 78.32°W
Report Text: KAOO 260053Z AUTO 28004KT 10SM CLR 03/M02 A3010 RMK AO2 SLP205 T00331022
Loading
Personal Weather Stations






























Interactive Weather Map New forecast layout! Learn more

10-Day Weather Forecast

Advertisements
Track Severe Weather on mobile